Time;durP1;ratioP1;P1;durP2;ratioP2;P2;SDS_P1;SDS_P2;PMS_P1;PMS_P2;Temp;Humidity;BMP_temperature;BMP_pressure;BME280_temperature;BME280_humidity;BME280_pressure;Samples;Min_cycle;Max_cycle;Signal;HPM_P1;HPM_P2
2022/03/29 00:01:55;;;;;;;16.23;10.10;;;12.20;99.90;;;;;;5076301;28;20459;-82
2022/03/29 00:04:22;;;;;;;14.23;9.27;;;12.20;99.90;;;;;;5076119;28;20452;-83
2022/03/29 00:06:48;;;;;;;17.60;8.43;;;12.10;99.90;;;;;;5091164;22;20592;-64
2022/03/29 00:09:14;;;;;;;15.47;9.33;;;12.20;99.90;;;;;;5082336;28;20499;-64
2022/03/29 00:11:39;;;;;;;19.10;10.90;;;12.20;99.90;;;;;;5093005;28;20411;-64
2022/03/29 00:14:06;;;;;;;16.13;9.77;;;12.20;99.90;;;;;;5079202;28;20458;-63
2022/03/29 00:16:32;;;;;;;16.07;9.60;;;12.20;99.90;;;;;;5082444;28;20190;-64
2022/03/29 00:18:58;;;;;;;19.07;9.50;;;12.10;99.90;;;;;;5075416;28;20420;-64
2022/03/29 00:21:24;;;;;;;19.10;9.47;;;11.90;99.90;;;;;;5075041;28;20555;-64
2022/03/29 00:23:50;;;;;;;21.60;10.17;;;11.90;99.90;;;;;;5074833;28;20228;-63
2022/03/29 00:26:16;;;;;;;17.00;10.03;;;11.90;99.90;;;;;;5075042;28;21085;-64
2022/03/29 00:28:42;;;;;;;23.80;10.33;;;12.00;99.90;;;;;;5075011;28;20499;-64
2022/03/29 00:31:09;;;;;;;19.13;10.00;;;12.00;99.90;;;;;;5074894;28;20602;-64
2022/03/29 00:33:36;;;;;;;15.30;9.60;;;12.00;99.90;;;;;;5074754;28;20432;-64
2022/03/29 00:36:02;;;;;;;17.70;10.30;;;12.00;99.90;;;;;;5074793;28;20493;-64
2022/03/29 00:38:28;;;;;;;16.40;10.40;;;12.00;99.90;;;;;;5074424;28;20432;-64
2022/03/29 00:40:54;;;;;;;18.03;9.70;;;12.00;99.90;;;;;;5074535;28;20464;-64
2022/03/29 00:43:20;;;;;;;15.40;10.23;;;12.00;99.90;;;;;;5074568;28;20656;-64
2022/03/29 00:45:46;;;;;;;20.23;11.50;;;12.00;99.90;;;;;;5074549;28;20180;-64
2022/03/29 00:48:13;;;;;;;14.80;8.83;;;12.00;99.90;;;;;;5074620;28;21028;-64
2022/03/29 00:50:40;;;;;;;23.40;10.33;;;11.90;99.90;;;;;;5074467;28;20970;-64
2022/03/29 00:53:08;;;;;;;18.40;9.43;;;11.90;99.90;;;;;;5074351;28;20409;-64
2022/03/29 00:55:34;;;;;;;18.07;10.47;;;11.80;99.90;;;;;;5074270;28;20499;-64
2022/03/29 00:58:03;;;;;;;19.23;9.77;;;11.80;99.90;;;;;;5074162;28;20444;-64
2022/03/29 01:00:31;;;;;;;18.60;9.50;;;11.80;99.90;;;;;;5074128;28;20990;-64
2022/03/29 01:02:56;;;;;;;14.70;10.03;;;11.80;99.90;;;;;;5074274;28;20499;-64
2022/03/29 01:05:23;;;;;;;15.77;9.27;;;11.70;99.90;;;;;;5074146;28;20519;-64
2022/03/29 01:07:48;;;;;;;20.70;10.87;;;11.70;99.90;;;;;;5073824;28;20555;-64
2022/03/29 01:10:14;;;;;;;15.70;10.00;;;11.70;99.90;;;;;;5074155;28;20495;-64
2022/03/29 01:12:40;;;;;;;16.23;9.60;;;11.70;99.90;;;;;;5074141;28;20922;-64
2022/03/29 01:15:10;;;;;;;22.67;10.33;;;11.70;99.90;;;;;;5074498;28;20175;-64
2022/03/29 01:17:39;;;;;;;14.00;9.00;;;11.60;99.90;;;;;;5073815;28;20448;-64
2022/03/29 01:20:18;;;;;;;18.60;10.30;;;11.60;99.90;;;;;;5073926;28;20441;-64
2022/03/29 01:22:46;;;;;;;23.60;10.00;;;11.60;99.90;;;;;;5073960;28;20424;-64
2022/03/29 01:25:21;;;;;;;19.30;10.87;;;11.50;99.90;;;;;;5073905;28;20412;-64
2022/03/29 01:27:49;;;;;;;16.27;9.10;;;11.50;99.90;;;;;;5073580;28;20498;-64
2022/03/29 01:30:15;;;;;;;16.63;8.67;;;11.50;99.90;;;;;;5073908;28;20411;-63
2022/03/29 01:32:45;;;;;;;19.93;10.27;;;11.40;99.90;;;;;;5073593;28;20915;-63
2022/03/29 01:35:13;;;;;;;20.87;10.17;;;11.30;99.90;;;;;;5074135;28;20911;-63
2022/03/29 01:37:39;;;;;;;17.97;9.13;;;11.30;99.90;;;;;;5073553;28;20436;-64
2022/03/29 01:40:17;;;;;;;17.97;9.60;;;11.30;99.90;;;;;;5073790;28;20440;-64
2022/03/29 01:42:54;;;;;;;14.03;9.10;;;11.30;99.90;;;;;;5073804;28;20453;-64
2022/03/29 01:45:28;;;;;;;16.50;9.40;;;11.30;99.90;;;;;;5073768;28;20478;-64
2022/03/29 01:47:53;;;;;;;17.43;9.30;;;11.20;99.90;;;;;;5073376;28;20427;-63
2022/03/29 01:50:19;;;;;;;15.07;9.30;;;11.10;99.90;;;;;;5073793;28;20608;-64
2022/03/29 01:52:47;;;;;;;22.03;9.13;;;11.10;99.90;;;;;;5073586;28;20235;-64
2022/03/29 01:55:16;;;;;;;17.53;10.37;;;11.10;99.90;;;;;;5073561;28;20476;-64
2022/03/29 01:57:42;;;;;;;15.70;8.97;;;11.10;99.90;;;;;;5073445;28;20809;-64
2022/03/29 02:02:57;;;;;;;14.33;8.00;;;11.10;99.90;;;;;;5092107;28;20410;-63
2022/03/29 02:05:24;;;;;;;16.90;9.43;;;11.20;99.90;;;;;;5073440;28;20419;-63
2022/03/29 02:07:50;;;;;;;17.80;9.50;;;11.20;99.90;;;;;;5073292;28;20502;-64
2022/03/29 02:10:22;;;;;;;16.43;8.73;;;11.20;99.90;;;;;;5073315;28;20777;-64
2022/03/29 02:12:49;;;;;;;21.70;9.83;;;11.30;99.90;;;;;;5064266;28;20429;-63
2022/03/29 02:15:15;;;;;;;19.07;9.97;;;11.30;99.90;;;;;;5070353;28;20527;-64
2022/03/29 02:17:43;;;;;;;14.53;9.53;;;11.40;99.90;;;;;;5084927;28;20486;-63
2022/03/29 02:20:09;;;;;;;17.97;9.97;;;11.40;99.90;;;;;;5085140;28;20412;-64
2022/03/29 02:22:35;;;;;;;12.00;8.90;;;11.30;99.90;;;;;;5093526;28;20792;-63
2022/03/29 02:25:01;;;;;;;20.27;9.50;;;11.30;99.90;;;;;;5094145;28;20779;-64
2022/03/29 02:27:27;;;;;;;18.43;11.43;;;11.30;99.90;;;;;;5093180;28;20464;-64
2022/03/29 02:29:53;;;;;;;16.90;9.97;;;11.30;99.90;;;;;;5093239;28;20415;-63
2022/03/29 02:32:19;;;;;;;20.80;9.43;;;11.30;99.90;;;;;;5083980;28;20438;-63
2022/03/29 02:34:45;;;;;;;18.20;9.20;;;11.30;99.90;;;;;;5087039;28;20762;-64
2022/03/29 02:37:12;;;;;;;16.23;9.80;;;11.20;99.90;;;;;;5092979;28;20465;-64
2022/03/29 02:39:38;;;;;;;16.80;9.30;;;11.20;99.90;;;;;;5096657;28;20614;-64
2022/03/29 02:42:04;;;;;;;21.87;8.90;;;11.30;99.90;;;;;;5097338;28;20463;-64
2022/03/29 02:44:30;;;;;;;18.53;8.53;;;11.30;99.90;;;;;;5097255;28;20463;-64
2022/03/29 02:46:56;;;;;;;21.03;10.10;;;11.30;99.90;;;;;;5096863;28;20451;-64
2022/03/29 02:49:24;;;;;;;15.30;9.10;;;11.30;99.90;;;;;;5096978;28;20426;-64
2022/03/29 02:51:51;;;;;;;15.30;8.87;;;11.30;99.90;;;;;;5097487;28;20921;-64
2022/03/29 02:54:17;;;;;;;16.20;9.30;;;11.20;99.90;;;;;;5097044;28;20419;-64
2022/03/29 02:56:43;;;;;;;17.50;8.80;;;11.20;99.90;;;;;;5096984;28;20443;-64
2022/03/29 02:59:09;;;;;;;16.60;9.90;;;11.20;99.90;;;;;;5097048;28;20411;-64
2022/03/29 03:01:35;;;;;;;17.10;9.73;;;11.20;99.90;;;;;;5096912;28;21227;-64
2022/03/29 03:04:02;;;;;;;19.00;9.80;;;11.20;99.90;;;;;;5090178;28;20549;-64
2022/03/29 03:06:27;;;;;;;14.03;9.37;;;11.20;99.90;;;;;;5087044;28;20219;-64
2022/03/29 03:08:53;;;;;;;16.83;8.57;;;11.20;99.90;;;;;;5085033;28;20462;-64
2022/03/29 03:11:19;;;;;;;17.27;8.60;;;11.30;99.90;;;;;;5077081;28;20280;-64
2022/03/29 03:13:46;;;;;;;14.10;9.20;;;11.20;99.90;;;;;;5094636;28;20552;-63
2022/03/29 03:16:12;;;;;;;16.40;9.30;;;11.10;99.90;;;;;;5078296;28;20565;-63
2022/03/29 03:18:38;;;;;;;18.40;9.53;;;11.00;99.90;;;;;;5077156;28;20941;-64
2022/03/29 03:21:04;;;;;;;19.03;9.93;;;11.10;99.90;;;;;;5092545;28;20462;-63
2022/03/29 03:23:30;;;;;;;16.23;8.80;;;11.00;99.90;;;;;;5096501;28;20426;-64
2022/03/29 03:25:56;;;;;;;15.23;8.67;;;11.00;99.90;;;;;;5096320;28;20265;-64
2022/03/29 03:28:22;;;;;;;15.53;8.67;;;11.00;99.90;;;;;;5096208;28;20442;-64
2022/03/29 03:30:48;;;;;;;16.50;8.87;;;11.10;99.90;;;;;;5096492;28;20778;-63
2022/03/29 03:33:13;;;;;;;15.27;9.50;;;11.10;99.90;;;;;;5096549;28;20185;-63
2022/03/29 03:35:39;;;;;;;15.57;8.63;;;11.10;99.90;;;;;;5096066;28;20464;-63
2022/03/29 03:38:06;;;;;;;17.47;9.97;;;11.00;99.90;;;;;;5095892;28;20211;-63
2022/03/29 03:40:32;;;;;;;14.57;8.73;;;11.10;99.90;;;;;;5096113;28;20674;-64
2022/03/29 03:42:58;;;;;;;15.63;8.40;;;11.00;99.90;;;;;;5096190;28;20511;-64
2022/03/29 03:45:23;;;;;;;19.87;9.40;;;11.10;99.90;;;;;;5095966;28;20187;-64
2022/03/29 03:47:49;;;;;;;19.20;9.50;;;11.00;99.90;;;;;;5095774;28;20229;-63
2022/03/29 03:50:15;;;;;;;18.83;8.40;;;11.00;99.90;;;;;;5094638;28;20182;-64
2022/03/29 03:52:41;;;;;;;17.50;9.27;;;11.00;99.90;;;;;;5095935;28;20194;-64
2022/03/29 03:55:08;;;;;;;15.80;9.20;;;11.00;99.90;;;;;;5095929;28;20424;-64
2022/03/29 03:57:33;;;;;;;17.17;9.50;;;11.00;99.90;;;;;;5095545;28;20205;-63
2022/03/29 04:00:01;;;;;;;19.63;10.60;;;11.00;99.90;;;;;;5095722;28;20421;-63
2022/03/29 04:02:27;;;;;;;15.07;9.00;;;11.00;99.90;;;;;;5095546;28;20212;-64
2022/03/29 04:04:52;;;;;;;15.27;9.17;;;11.00;99.90;;;;;;5095773;28;20467;-64
2022/03/29 04:07:18;;;;;;;19.77;11.50;;;11.10;99.90;;;;;;5095137;28;20225;-64
2022/03/29 04:09:44;;;;;;;17.30;9.10;;;11.00;99.90;;;;;;5095566;28;20178;-64
2022/03/29 04:12:10;;;;;;;16.87;9.63;;;11.00;99.90;;;;;;5095394;28;20437;-64
2022/03/29 04:14:36;;;;;;;17.57;8.63;;;10.80;99.90;;;;;;5095544;28;20670;-64
2022/03/29 04:17:04;;;;;;;15.27;9.50;;;10.70;99.90;;;;;;5095104;28;20462;-64
2022/03/29 04:19:30;;;;;;;19.80;8.80;;;10.70;99.90;;;;;;5095283;28;20427;-63
2022/03/29 04:21:55;;;;;;;15.10;9.57;;;10.70;99.90;;;;;;5095153;28;21020;-63
2022/03/29 04:24:21;;;;;;;15.40;9.67;;;10.80;99.90;;;;;;5095140;28;20648;-63
2022/03/29 04:26:48;;;;;;;18.40;10.10;;;10.80;99.90;;;;;;5094971;28;20197;-63
2022/03/29 04:29:14;;;;;;;12.17;8.40;;;10.70;99.90;;;;;;5095096;28;20419;-63
2022/03/29 04:31:40;;;;;;;16.53;9.50;;;10.70;99.90;;;;;;5095059;28;20422;-63
2022/03/29 04:34:06;;;;;;;15.33;8.70;;;10.70;99.90;;;;;;5095003;28;20452;-63
2022/03/29 04:36:32;;;;;;;15.70;9.37;;;10.70;99.90;;;;;;5094739;28;20443;-64
2022/03/29 04:38:58;;;;;;;16.70;9.33;;;10.70;99.90;;;;;;5094894;28;20176;-63
2022/03/29 04:41:24;;;;;;;16.27;9.27;;;10.70;99.90;;;;;;5094839;28;20494;-63
2022/03/29 04:43:50;;;;;;;18.90;8.97;;;10.70;99.90;;;;;;5094973;28;20229;-64
2022/03/29 04:46:17;;;;;;;13.90;9.43;;;10.70;99.90;;;;;;5094826;28;20415;-64
2022/03/29 04:48:43;;;;;;;16.43;10.37;;;10.60;99.90;;;;;;5094707;28;20643;-63
2022/03/29 04:51:09;;;;;;;18.40;10.23;;;10.60;99.90;;;;;;5094590;28;20424;-63
2022/03/29 04:53:34;;;;;;;19.20;9.23;;;10.50;99.90;;;;;;5094747;28;20509;-64
2022/03/29 04:56:00;;;;;;;17.93;9.40;;;10.60;99.90;;;;;;5094486;28;20184;-64
2022/03/29 04:58:26;;;;;;;25.77;10.47;;;10.60;99.90;;;;;;5094454;28;20242;-64
2022/03/29 05:00:52;;;;;;;23.60;10.00;;;10.50;99.90;;;;;;5094074;28;20235;-64
2022/03/29 05:03:18;;;;;;;20.00;9.57;;;10.60;99.90;;;;;;5094506;28;20178;-63
2022/03/29 05:05:44;;;;;;;15.70;9.50;;;10.60;99.90;;;;;;5094332;28;20415;-64
2022/03/29 05:08:10;;;;;;;20.40;9.50;;;10.50;99.90;;;;;;5094205;28;20214;-63
2022/03/29 05:10:36;;;;;;;15.87;9.03;;;10.50;99.90;;;;;;5094436;28;20841;-63
2022/03/29 05:13:02;;;;;;;15.60;9.60;;;10.40;99.90;;;;;;5094321;28;20222;-64
2022/03/29 05:15:27;;;;;;;13.20;9.17;;;10.30;99.90;;;;;;5094213;28;20437;-63
2022/03/29 05:17:53;;;;;;;20.93;10.07;;;10.20;99.90;;;;;;5093941;28;20255;-64
2022/03/29 05:20:19;;;;;;;16.60;10.40;;;10.30;99.90;;;;;;5094140;28;20652;-63
2022/03/29 05:22:52;;;;;;;23.33;10.33;;;10.30;99.90;;;;;;5094158;28;20174;-64
2022/03/29 05:25:21;;;;;;;17.17;10.57;;;10.30;99.90;;;;;;5094271;28;20211;-63
2022/03/29 05:27:47;;;;;;;18.00;10.00;;;10.30;99.90;;;;;;5093903;28;20962;-64
2022/03/29 05:30:14;;;;;;;18.23;9.40;;;10.30;99.90;;;;;;5094067;28;20408;-63
2022/03/29 05:32:41;;;;;;;17.37;9.80;;;10.20;99.90;;;;;;5094102;28;20416;-63
2022/03/29 05:35:08;;;;;;;17.37;10.30;;;10.20;99.90;;;;;;5094096;28;20505;-63
2022/03/29 05:37:38;;;;;;;21.10;9.50;;;10.20;99.90;;;;;;5094120;28;20438;-64
2022/03/29 05:40:09;;;;;;;20.13;10.43;;;10.20;99.90;;;;;;5094090;28;20537;-64
2022/03/29 05:42:42;;;;;;;16.23;9.50;;;10.20;99.90;;;;;;5093733;28;20469;-64
2022/03/29 05:45:10;;;;;;;15.67;9.60;;;10.10;99.90;;;;;;5093971;28;20415;-64
2022/03/29 05:50:20;;;;;;;18.80;9.83;;;10.20;99.90;;;;;;5112576;28;20419;-64
2022/03/29 05:52:46;;;;;;;21.07;10.13;;;10.20;99.90;;;;;;5094005;28;20782;-64
2022/03/29 05:55:12;;;;;;;21.53;9.80;;;10.20;99.90;;;;;;5093787;28;20420;-63
2022/03/29 05:57:38;;;;;;;24.17;10.97;;;10.20;99.90;;;;;;5093658;28;20446;-64
2022/03/29 06:00:10;;;;;;;15.50;9.23;;;10.30;99.90;;;;;;5093760;28;20214;-64
2022/03/29 06:02:38;;;;;;;18.87;9.77;;;10.40;99.90;;;;;;5093915;28;20407;-64
2022/03/29 06:05:05;;;;;;;18.40;10.00;;;10.50;99.90;;;;;;5093666;28;20425;-64
2022/03/29 06:07:30;;;;;;;15.70;8.67;;;10.50;99.90;;;;;;5092070;22;20881;-82
2022/03/29 06:09:56;;;;;;;15.73;9.97;;;10.50;99.90;;;;;;5064444;28;20512;-82
2022/03/29 06:12:22;;;;;;;18.87;10.23;;;10.60;99.90;;;;;;5052699;28;20693;-81
2022/03/29 06:14:49;;;;;;;17.00;10.43;;;10.70;99.90;;;;;;5074501;28;20181;-82
2022/03/29 06:17:15;;;;;;;20.80;10.63;;;10.70;99.90;;;;;;5074358;28;20498;-82
2022/03/29 06:19:42;;;;;;;19.50;10.83;;;10.70;99.90;;;;;;5074845;28;20462;-82
2022/03/29 06:22:07;;;;;;;19.30;10.97;;;10.60;99.90;;;;;;5073967;28;20445;-82
2022/03/29 06:24:33;;;;;;;18.23;11.60;;;10.70;99.90;;;;;;5054552;28;20947;-82
2022/03/29 06:26:59;;;;;;;21.63;11.40;;;10.70;99.90;;;;;;5054434;28;20651;-82
2022/03/29 06:29:25;;;;;;;20.60;11.97;;;10.70;99.90;;;;;;5054613;28;20585;-82
2022/03/29 06:31:51;;;;;;;17.77;10.10;;;10.80;99.90;;;;;;5054523;28;20257;-82
2022/03/29 06:34:17;;;;;;;18.33;9.97;;;10.90;99.90;;;;;;5054470;28;20248;-82
2022/03/29 06:36:43;;;;;;;19.27;11.47;;;11.00;99.90;;;;;;5054232;28;20414;-82
2022/03/29 06:39:11;;;;;;;22.37;9.80;;;11.10;99.90;;;;;;5054433;28;20435;-82
2022/03/29 06:41:38;;;;;;;17.93;10.43;;;11.20;99.90;;;;;;5054185;28;20540;-82
2022/03/29 06:44:07;;;;;;;17.70;10.60;;;11.30;99.90;;;;;;5054942;28;20425;-82
2022/03/29 06:46:34;;;;;;;20.93;12.20;;;11.40;99.90;;;;;;5053783;28;20428;-82
2022/03/29 06:49:02;;;;;;;18.83;10.73;;;11.50;99.90;;;;;;5054022;28;20963;-81
2022/03/29 06:51:29;;;;;;;17.03;11.47;;;11.60;99.90;;;;;;5053735;28;20468;-82
2022/03/29 06:53:55;;;;;;;19.43;11.40;;;11.70;99.90;;;;;;5053841;28;20415;-81
2022/03/29 06:56:21;;;;;;;18.40;10.13;;;11.80;99.90;;;;;;5053554;28;20410;-82
2022/03/29 06:58:46;;;;;;;20.20;12.63;;;12.00;99.90;;;;;;5053712;28;20181;-82
2022/03/29 07:01:12;;;;;;;15.90;10.83;;;12.00;99.90;;;;;;5054083;28;20238;-83
2022/03/29 07:03:38;;;;;;;17.63;10.70;;;12.20;99.90;;;;;;5053986;28;20664;-82
2022/03/29 07:06:04;;;;;;;22.53;10.67;;;12.20;99.90;;;;;;5053858;28;20183;-82
2022/03/29 07:08:30;;;;;;;20.97;11.87;;;12.30;99.90;;;;;;5053291;28;20430;-83
2022/03/29 07:13:42;;;;;;;19.70;10.90;;;12.50;99.90;;;;;;5054724;28;20178;-82
2022/03/29 07:16:09;;;;;;;21.30;11.57;;;12.60;99.90;;;;;;5053765;28;20433;-83
2022/03/29 07:18:35;;;;;;;18.90;10.43;;;12.80;99.90;;;;;;5053651;28;20509;-82
2022/03/29 07:21:01;;;;;;;17.10;11.57;;;12.90;99.90;;;;;;5053454;28;20430;-83
2022/03/29 07:23:29;;;;;;;16.33;10.43;;;12.90;99.90;;;;;;5053560;28;20422;-82
2022/03/29 07:25:56;;;;;;;27.20;11.97;;;13.00;99.90;;;;;;5053180;28;20422;-82
2022/03/29 07:28:23;;;;;;;22.13;11.70;;;13.00;99.90;;;;;;5053048;28;20462;-83
2022/03/29 07:30:49;;;;;;;19.43;11.90;;;13.00;99.90;;;;;;5053249;28;20887;-82
2022/03/29 07:33:17;;;;;;;22.83;12.20;;;13.10;99.90;;;;;;5053545;28;20798;-83
2022/03/29 07:35:44;;;;;;;19.00;11.53;;;13.30;99.90;;;;;;5053167;28;20493;-82
2022/03/29 07:38:11;;;;;;;20.23;11.53;;;13.40;99.90;;;;;;5053113;28;20415;-82
2022/03/29 07:40:38;;;;;;;16.73;10.97;;;13.50;99.90;;;;;;5053157;28;20442;-83
2022/03/29 07:43:05;;;;;;;18.97;10.70;;;13.70;99.90;;;;;;5053777;28;20421;-83
2022/03/29 07:45:31;;;;;;;22.00;12.57;;;13.80;99.90;;;;;;5053722;28;20415;-83
2022/03/29 07:47:57;;;;;;;19.30;11.23;;;14.00;99.90;;;;;;5053457;28;20417;-83
2022/03/29 07:50:26;;;;;;;19.53;12.57;;;14.00;99.90;;;;;;5053502;28;20438;-82
2022/03/29 07:52:54;;;;;;;24.43;13.03;;;14.10;99.90;;;;;;5053713;28;20421;-83
2022/03/29 07:55:19;;;;;;;22.63;13.37;;;14.10;99.90;;;;;;5053766;28;20415;-83
2022/03/29 07:57:45;;;;;;;22.73;13.23;;;14.20;99.90;;;;;;5053259;28;20502;-83
2022/03/29 08:00:31;;;;;;;19.77;12.43;;;14.40;99.90;;;;;;5053298;28;20992;-83
2022/03/29 08:03:02;;;;;;;22.03;14.80;;;14.60;99.90;;;;;;5053355;28;20497;-82
2022/03/29 08:05:29;;;;;;;18.67;12.30;;;14.70;99.90;;;;;;5053311;28;20402;-83
2022/03/29 08:07:57;;;;;;;19.10;12.87;;;15.00;99.90;;;;;;5053030;28;20445;-81
2022/03/29 08:10:23;;;;;;;22.67;13.37;;;15.10;99.90;;;;;;5052924;28;20438;-82
2022/03/29 08:12:48;;;;;;;19.20;12.73;;;15.20;99.90;;;;;;5053131;28;20499;-82
2022/03/29 08:15:14;;;;;;;20.27;12.77;;;15.40;99.90;;;;;;5053148;28;20509;-83
2022/03/29 08:17:40;;;;;;;20.43;13.30;;;15.40;99.90;;;;;;5052483;28;20744;-82
2022/03/29 08:20:07;;;;;;;23.20;12.53;;;15.40;99.90;;;;;;5052719;28;20190;-83
2022/03/29 08:22:34;;;;;;;23.60;13.67;;;15.40;99.90;;;;;;5053091;28;20211;-82
2022/03/29 08:25:00;;;;;;;20.80;13.30;;;15.50;99.90;;;;;;5053144;28;20433;-82
2022/03/29 08:27:26;;;;;;;22.80;13.00;;;15.50;99.90;;;;;;5064541;28;20937;-82
2022/03/29 08:29:52;;;;;;;20.40;12.87;;;15.50;99.90;;;;;;5072640;28;20436;-82
2022/03/29 08:32:18;;;;;;;22.53;14.00;;;15.50;99.90;;;;;;5072628;28;20555;-82
2022/03/29 08:34:44;;;;;;;22.73;13.30;;;15.60;99.90;;;;;;5072371;28;20503;-82
2022/03/29 08:37:10;;;;;;;20.57;12.47;;;15.70;99.90;;;;;;5071492;28;20938;-82
2022/03/29 08:39:36;;;;;;;22.57;13.87;;;15.80;99.90;;;;;;5072432;28;20179;-82
2022/03/29 08:42:13;;;;;;;24.50;14.83;;;15.90;99.90;;;;;;5072598;28;20294;-83
2022/03/29 08:44:40;;;;;;;21.80;13.77;;;16.10;99.90;;;;;;5072307;28;20193;-83
2022/03/29 08:47:11;;;;;;;21.10;12.60;;;16.30;99.90;;;;;;5072046;28;20436;-82
2022/03/29 08:49:37;;;;;;;20.47;12.80;;;16.40;99.90;;;;;;5074885;28;20782;-82
2022/03/29 08:52:06;;;;;;;21.00;13.10;;;16.60;99.90;;;;;;5072333;28;20461;-82
2022/03/29 08:54:33;;;;;;;26.67;14.50;;;17.00;99.90;;;;;;5076221;28;20422;-84
2022/03/29 08:56:59;;;;;;;21.20;13.20;;;17.20;99.90;;;;;;5097245;28;20473;-83
2022/03/29 08:59:26;;;;;;;19.87;13.40;;;17.30;99.90;;;;;;5097648;28;20417;-84
2022/03/29 09:01:55;;;;;;;22.33;13.90;;;17.60;99.90;;;;;;5090685;28;20509;-83
2022/03/29 09:04:22;;;;;;;21.77;12.47;;;17.80;99.90;;;;;;5078571;28;20435;-83
2022/03/29 09:06:55;;;;;;;27.10;13.33;;;17.90;99.90;;;;;;5078278;28;20425;-83
2022/03/29 09:09:37;;;;;;;17.93;13.30;;;17.80;99.90;;;;;;5080929;28;20437;-83
2022/03/29 09:12:17;;;;;;;17.50;12.33;;;18.10;99.90;;;;;;5077910;28;20461;-82
2022/03/29 09:14:54;;;;;;;20.70;13.70;;;18.50;99.90;;;;;;5076491;28;20444;-82
2022/03/29 09:17:34;;;;;;;20.27;12.50;;;18.60;99.90;;;;;;5072192;28;20831;-81
2022/03/29 09:20:04;;;;;;;20.57;12.40;;;18.80;99.90;;;;;;5071981;28;20428;-81
2022/03/29 09:22:42;;;;;;;23.43;12.80;;;19.10;99.90;;;;;;5072230;28;20431;-82
2022/03/29 09:25:29;;;;;;;22.13;13.40;;;19.50;99.90;;;;;;5071942;28;20429;-82
2022/03/29 09:27:55;;;;;;;17.87;11.60;;;19.60;99.90;;;;;;5057500;28;20425;-82
2022/03/29 09:30:21;;;;;;;19.33;13.10;;;19.70;99.90;;;;;;5071833;28;20934;-82
2022/03/29 09:32:52;;;;;;;18.70;12.03;;;19.80;99.90;;;;;;5071789;28;20627;-82
2022/03/29 09:35:18;;;;;;;21.30;12.87;;;19.90;99.90;;;;;;5072074;28;20452;-82
2022/03/29 09:37:45;;;;;;;18.73;12.03;;;20.10;99.90;;;;;;5078443;28;20602;-83
2022/03/29 09:40:12;;;;;;;15.43;11.13;;;20.00;99.90;;;;;;5080667;28;20449;-83
2022/03/29 09:42:41;;;;;;;19.13;12.90;;;20.00;99.90;;;;;;5079745;28;20424;-83
2022/03/29 09:45:08;;;;;;;20.07;12.70;;;20.10;99.90;;;;;;5080040;28;20429;-83
2022/03/29 09:47:34;;;;;;;17.13;12.00;;;20.10;99.90;;;;;;5079212;28;20418;-84
2022/03/29 09:50:06;;;;;;;22.07;13.67;;;20.20;99.90;;;;;;5066419;28;20849;-82
2022/03/29 09:52:37;;;;;;;19.33;13.03;;;20.40;99.90;;;;;;5050472;28;21008;-82
2022/03/29 09:55:13;;;;;;;16.67;11.90;;;20.80;99.90;;;;;;5055954;28;20488;-82
2022/03/29 09:57:49;;;;;;;20.00;12.23;;;20.90;99.90;;;;;;5050142;28;20418;-82
2022/03/29 10:00:29;;;;;;;17.97;11.30;;;20.80;99.90;;;;;;5050458;28;20806;-82
2022/03/29 10:02:55;;;;;;;18.37;12.37;;;20.50;99.90;;;;;;5050460;28;20417;-86
2022/03/29 10:05:23;;;;;;;18.10;11.67;;;20.40;99.90;;;;;;5050285;28;20452;-84
2022/03/29 10:10:58;;;;;;;19.43;13.23;;;21.20;99.90;;;;;;5066717;28;20461;-83
2022/03/29 10:13:24;;;;;;;17.30;12.23;;;22.20;99.90;;;;;;5069799;28;20414;-83
2022/03/29 10:15:51;;;;;;;18.00;12.50;;;22.90;97.50;;;;;;5070284;28;20431;-83
2022/03/29 10:18:17;;;;;;;17.27;12.10;;;23.50;93.30;;;;;;5069930;28;20413;-83
2022/03/29 10:20:43;;;;;;;17.93;11.60;;;24.70;91.90;;;;;;5070848;28;20459;-83
2022/03/29 10:23:14;;;;;;;17.80;11.77;;;25.70;85.60;;;;;;5069794;28;20186;-82
2022/03/29 10:25:41;;;;;;;17.33;11.50;;;26.10;78.70;;;;;;5069691;28;20504;-82
2022/03/29 10:28:08;;;;;;;17.50;11.27;;;26.10;73.30;;;;;;5069441;28;20444;-82
2022/03/29 10:30:34;;;;;;;13.53;10.57;;;26.20;69.70;;;;;;5069767;28;20760;-83
2022/03/29 10:33:22;;;;;;;15.70;11.43;;;26.60;67.50;;;;;;5069935;28;20479;-83
2022/03/29 10:36:12;;;;;;;15.63;10.43;;;27.30;64.20;;;;;;5069805;28;20413;-83
2022/03/29 10:38:46;;;;;;;14.93;10.50;;;28.40;61.60;;;;;;5069959;28;20428;-83
2022/03/29 10:41:30;;;;;;;13.47;10.60;;;29.50;55.90;;;;;;5069606;28;20463;-83
2022/03/29 10:44:04;;;;;;;13.87;10.40;;;30.10;52.80;;;;;;5070018;28;20416;-83
2022/03/29 10:46:46;;;;;;;12.87;10.60;;;30.80;50.10;;;;;;5069915;28;20421;-83
2022/03/29 10:49:24;;;;;;;16.80;10.70;;;30.80;46.70;;;;;;5070200;28;20420;-83
2022/03/29 10:51:57;;;;;;;15.17;10.70;;;31.00;45.90;;;;;;5069374;28;20457;-83
2022/03/29 10:54:32;;;;;;;13.73;10.80;;;30.90;44.90;;;;;;5069983;28;20422;-83
2022/03/29 10:57:06;;;;;;;14.30;10.13;;;31.00;44.00;;;;;;5069593;28;20816;-83
2022/03/29 10:59:37;;;;;;;16.43;10.77;;;30.80;43.30;;;;;;5071099;28;20425;-83
2022/03/29 11:02:09;;;;;;;11.87;10.03;;;30.60;42.40;;;;;;5073310;28;20791;-83
2022/03/29 11:04:35;;;;;;;10.93;9.40;;;30.40;42.30;;;;;;5073001;28;20417;-83
2022/03/29 11:07:09;;;;;;;13.83;10.60;;;30.30;42.60;;;;;;5072716;28;20492;-83
2022/03/29 11:09:36;;;;;;;12.70;10.33;;;29.90;42.20;;;;;;5073354;28;20424;-83
2022/03/29 11:12:03;;;;;;;13.10;9.80;;;30.00;43.20;;;;;;5072993;28;20437;-83
2022/03/29 11:14:33;;;;;;;12.50;10.23;;;30.20;42.90;;;;;;5073236;28;20413;-83
2022/03/29 11:17:14;;;;;;;13.60;9.60;;;30.10;42.80;;;;;;5072849;28;20598;-83
2022/03/29 11:19:46;;;;;;;12.03;9.37;;;30.10;41.80;;;;;;5073658;28;20421;-84
2022/03/29 11:22:34;;;;;;;13.17;10.07;;;30.30;41.70;;;;;;5072660;28;20461;-83
2022/03/29 11:25:05;;;;;;;15.37;11.13;;;29.80;41.30;;;;;;5073163;28;20806;-83
2022/03/29 11:27:34;;;;;;;11.90;8.93;;;30.10;42.10;;;;;;5072964;28;20812;-83
2022/03/29 11:30:02;;;;;;;10.30;7.83;;;30.60;41.60;;;;;;5072735;28;20425;-83
2022/03/29 11:32:29;;;;;;;9.73;7.13;;;30.80;40.10;;;;;;5072837;28;20417;-83
2022/03/29 11:34:56;;;;;;;8.83;7.70;;;30.40;39.50;;;;;;5072761;28;20425;-82
2022/03/29 11:37:30;;;;;;;11.07;8.63;;;30.00;40.30;;;;;;5072304;28;20508;-83
2022/03/29 11:39:58;;;;;;;10.20;8.17;;;29.30;39.50;;;;;;5072766;28;20421;-83
2022/03/29 11:42:24;;;;;;;10.17;7.50;;;28.60;40.30;;;;;;5072168;28;20555;-83
2022/03/29 11:44:51;;;;;;;11.80;8.20;;;28.10;40.50;;;;;;5072652;28;20497;-83
2022/03/29 11:47:18;;;;;;;13.93;8.50;;;27.50;42.30;;;;;;5071876;28;20183;-83
2022/03/29 11:49:48;;;;;;;11.83;7.73;;;26.80;42.30;;;;;;5072531;28;20413;-82
2022/03/29 11:52:17;;;;;;;10.70;7.27;;;26.40;43.30;;;;;;5072189;28;20524;-83
2022/03/29 11:54:53;;;;;;;10.40;6.57;;;25.90;43.60;;;;;;5072098;28;20424;-82
2022/03/29 11:57:20;;;;;;;7.90;6.60;;;25.30;44.10;;;;;;5072103;28;20428;-83
2022/03/29 11:59:46;;;;;;;7.20;5.10;;;25.20;43.80;;;;;;5072044;28;20421;-83
2022/03/29 12:02:12;;;;;;;8.93;6.03;;;24.60;42.20;;;;;;5071996;28;20526;-82
2022/03/29 12:04:38;;;;;;;13.07;9.00;;;24.30;43.70;;;;;;5072159;28;20451;-82
2022/03/29 12:07:04;;;;;;;9.80;7.77;;;24.20;46.70;;;;;;5071357;28;20266;-82
2022/03/29 12:09:31;;;;;;;10.70;8.30;;;24.20;47.90;;;;;;5072091;28;20421;-82
2022/03/29 12:11:59;;;;;;;10.17;8.03;;;24.10;47.70;;;;;;5070843;28;20453;-83
2022/03/29 12:14:25;;;;;;;10.17;7.67;;;24.10;48.40;;;;;;5071736;28;20431;-83
2022/03/29 12:17:03;;;;;;;10.57;8.23;;;23.90;48.50;;;;;;5071662;28;20953;-82
2022/03/29 12:19:29;;;;;;;27.73;17.40;;;23.80;48.90;;;;;;5072114;28;20417;-82
2022/03/29 12:21:59;;;;;;;31.90;20.23;;;22.60;53.90;;;;;;5071509;28;20465;-82
2022/03/29 12:24:26;;;;;;;30.03;20.57;;;21.50;59.00;;;;;;5071737;28;20414;-82
2022/03/29 12:27:04;;;;;;;28.80;19.43;;;21.00;63.90;;;;;;5071174;28;20467;-82
2022/03/29 12:29:31;;;;;;;31.07;19.30;;;20.70;73.60;;;;;;5071410;28;20558;-82
2022/03/29 12:32:00;;;;;;;27.20;18.20;;;20.40;75.70;;;;;;5071294;28;20456;-82
2022/03/29 12:34:31;;;;;;;36.60;20.37;;;20.20;79.30;;;;;;5071664;28;20418;-82
2022/03/29 12:37:03;;;;;;;35.20;18.97;;;19.60;87.50;;;;;;5070954;28;20425;-82
2022/03/29 12:39:40;;;;;;;34.47;19.80;;;19.80;92.70;;;;;;5071277;28;20425;-82
2022/03/29 12:42:10;;;;;;;35.27;20.67;;;20.10;92.10;;;;;;5071010;28;20469;-82
2022/03/29 12:44:43;;;;;;;32.70;20.10;;;19.40;94.60;;;;;;5071337;28;20418;-82
2022/03/29 12:47:10;;;;;;;34.13;19.40;;;19.30;96.80;;;;;;5070741;28;20471;-82